Time;durP1;ratioP1;P1;durP2;ratioP2;P2;SDS_P1;SDS_P2;PMS_P1;PMS_P2;Temp;Humidity;BMP_temperature;BMP_pressure;BME280_temperature;BME280_humidity;BME280_pressure;Samples;Min_cycle;Max_cycle;Signal;HPM_P1;HPM_P2
2021/03/26 00:02:05;;;;;;;;;;;;;;;-0.38;61.60;100387.34;1744338;82;20267;-76
2021/03/26 00:04:33;;;;;;;;;;;;;;;-0.41;61.66;100396.51;1743744;80;20213;-76
2021/03/26 00:07:00;;;;;;;;;;;;;;;-0.45;61.80;100388.44;1743132;82;20740;-77
2021/03/26 00:09:32;;;;;;;;;;;;;;;-0.44;61.67;100391.44;1710924;81;20285;-75
2021/03/26 00:12:04;;;;;;;;;;;;;;;-0.42;61.58;100390.47;1778253;79;20251;-76
2021/03/26 00:14:33;;;;;;;;;;;;;;;-0.39;61.52;100398.59;1742448;82;20982;-76
2021/03/26 00:17:00;;;;;;;;;;;;;;;-0.39;61.61;100394.70;1748808;81;20224;-76
2021/03/26 00:19:29;;;;;;;;;;;;;;;-0.43;61.59;100397.86;1777421;80;20472;-76
2021/03/26 00:21:57;;;;;;;;;;;;;;;-0.42;61.63;100389.63;1745688;81;20264;-76
2021/03/26 00:24:25;;;;;;;;;;;;;;;-0.45;61.70;100389.29;1777207;80;21896;-76
2021/03/26 00:26:52;;;;;;;;;;;;;;;-0.49;61.88;100388.13;1744317;81;21113;-74
2021/03/26 00:29:20;;;;;;;;;;;;;;;-0.53;61.78;100387.40;1761654;80;20242;-75
2021/03/26 00:31:48;;;;;;;;;;;;;;;-0.52;61.75;100387.80;1744897;81;20476;-75
2021/03/26 00:34:16;;;;;;;;;;;;;;;-0.51;61.83;100383.00;1777204;80;20243;-76
2021/03/26 00:36:44;;;;;;;;;;;;;;;-0.49;61.66;100392.02;1749737;81;22072;-77
2021/03/26 00:39:11;;;;;;;;;;;;;;;-0.47;61.71;100394.14;1749750;81;20360;-76
2021/03/26 00:41:39;;;;;;;;;;;;;;;-0.51;61.79;100393.37;1747861;82;20249;-76
2021/03/26 00:44:08;;;;;;;;;;;;;;;-0.55;61.92;100392.25;1771795;80;20303;-76
2021/03/26 00:46:36;;;;;;;;;;;;;;;-0.59;61.84;100398.81;1745208;81;20217;-76
2021/03/26 00:49:05;;;;;;;;;;;;;;;-0.59;61.93;100398.81;1776471;80;22977;-75
2021/03/26 00:51:34;;;;;;;;;;;;;;;-0.59;61.66;100396.67;1737781;82;20354;-75
2021/03/26 00:54:01;;;;;;;;;;;;;;;-0.51;61.65;100397.27;1775308;79;20219;-74
2021/03/26 00:56:30;;;;;;;;;;;;;;;-0.48;61.63;100398.48;1774666;80;20290;-74
2021/03/26 00:58:59;;;;;;;;;;;;;;;-0.52;61.77;100398.17;1775885;80;20281;-74
2021/03/26 01:01:27;;;;;;;;;;;;;;;-0.55;61.74;100402.63;1779770;79;22088;-77
2021/03/26 01:03:57;;;;;;;;;;;;;;;-0.53;61.55;100399.52;1744932;81;20364;-77
2021/03/26 01:06:25;;;;;;;;;;;;;;;-0.49;61.53;100399.80;1779047;79;20219;-76
2021/03/26 01:08:54;;;;;;;;;;;;;;;-0.45;61.36;100407.45;1777203;80;20471;-76
2021/03/26 01:11:25;;;;;;;;;;;;;;;-0.42;61.21;100408.64;1764045;80;20502;-76
2021/03/26 01:13:53;;;;;;;;;;;;;;;-0.42;61.22;100414.28;1757386;81;23189;-76
2021/03/26 01:16:25;;;;;;;;;;;;;;;-0.43;61.18;100413.88;1763411;80;20252;-76
2021/03/26 01:18:54;;;;;;;;;;;;;;;-0.44;61.20;100414.78;1776470;80;20219;-76
2021/03/26 01:21:25;;;;;;;;;;;;;;;-0.46;61.17;100411.41;1744809;82;20384;-76
2021/03/26 01:23:53;;;;;;;;;;;;;;;-0.47;61.02;100410.55;1732711;82;20397;-77
2021/03/26 01:26:21;;;;;;;;;;;;;;;-0.47;61.12;100409.26;1749830;82;21956;-76
2021/03/26 01:28:51;;;;;;;;;;;;;;;-0.48;61.03;100411.88;1766571;80;20220;-75
2021/03/26 01:31:20;;;;;;;;;;;;;;;-0.48;60.97;100411.45;1767152;80;20274;-77
2021/03/26 01:33:49;;;;;;;;;;;;;;;-0.49;61.18;100414.92;1774750;80;20309;-77
2021/03/26 01:36:17;;;;;;;;;;;;;;;-0.56;61.20;100404.83;1718342;82;20234;-75
2021/03/26 01:38:45;;;;;;;;;;;;;;;-0.61;61.14;100411.00;1776179;80;20968;-77
2021/03/26 01:41:25;;;;;;;;;;;;;;;-0.61;61.26;100416.19;1744198;81;20237;-75
2021/03/26 01:43:52;;;;;;;;;;;;;;;-0.63;61.14;100411.50;1744746;81;20229;-73
2021/03/26 01:46:22;;;;;;;;;;;;;;;-0.65;61.27;100421.09;1750683;81;20305;-72
2021/03/26 01:48:57;;;;;;;;;;;;;;;-0.69;61.45;100413.44;1717373;82;20213;-75
2021/03/26 01:51:30;;;;;;;;;;;;;;;-0.74;61.50;100418.79;1777178;80;22980;-76
2021/03/26 01:53:58;;;;;;;;;;;;;;;-0.76;61.51;100418.45;1744858;82;20358;-76
2021/03/26 01:56:26;;;;;;;;;;;;;;;-0.75;61.44;100418.84;1740241;81;20284;-76
2021/03/26 01:59:03;;;;;;;;;;;;;;;-0.69;61.53;100419.92;1720143;82;20302;-77
2021/03/26 02:01:43;;;;;;;;;;;;;;;-0.69;61.43;100423.81;1734356;80;20852;-76
2021/03/26 02:04:17;;;;;;;;;;;;;;;-0.69;61.39;100427.25;1773575;80;22071;-77
2021/03/26 02:06:47;;;;;;;;;;;;;;;-0.69;61.38;100424.66;1716123;83;20222;-77
2021/03/26 02:09:18;;;;;;;;;;;;;;;-0.69;61.41;100423.81;1727718;81;20248;-76
2021/03/26 02:12:02;;;;;;;;;;;;;;;-0.70;61.26;100425.56;1766039;80;20478;-76
2021/03/26 02:14:34;;;;;;;;;;;;;;;-0.70;61.29;100431.20;1760644;81;20284;-75
2021/03/26 02:17:02;;;;;;;;;;;;;;;-0.75;61.42;100422.28;1777345;80;22074;-77
2021/03/26 02:19:44;;;;;;;;;;;;;;;-0.79;61.50;100428.45;1742835;82;20423;-77
2021/03/26 02:22:13;;;;;;;;;;;;;;;-0.84;61.56;100423.87;1744547;82;20389;-77
2021/03/26 02:24:41;;;;;;;;;;;;;;;-0.90;61.72;100426.20;1745154;82;21360;-75
2021/03/26 02:27:14;;;;;;;;;;;;;;;-0.98;61.88;100434.66;1776447;80;20251;-74
2021/03/26 02:29:42;;;;;;;;;;;;;;;-1.02;62.01;100431.77;1745960;82;22119;-74
2021/03/26 02:32:34;;;;;;;;;;;;;;;-1.05;62.04;100427.14;1744895;81;20902;-74
2021/03/26 02:35:13;;;;;;;;;;;;;;;-1.10;62.29;100432.90;1749065;80;20227;-75
2021/03/26 02:37:49;;;;;;;;;;;;;;;-1.20;62.44;100429.29;1722359;81;20227;-74
2021/03/26 02:40:21;;;;;;;;;;;;;;;-1.22;62.50;100424.61;1777179;79;20234;-74
2021/03/26 02:42:50;;;;;;;;;;;;;;;-1.21;62.41;100423.71;1747639;82;21913;-74
2021/03/26 02:45:24;;;;;;;;;;;;;;;-1.20;62.57;100428.00;1749289;80;20494;-74
2021/03/26 02:47:56;;;;;;;;;;;;;;;-1.24;62.65;100428.15;1740501;82;20241;-75
2021/03/26 02:50:41;;;;;;;;;;;;;;;-1.23;62.67;100431.14;1733506;82;20459;-74
2021/03/26 02:53:35;;;;;;;;;;;;;;;-1.23;62.68;100435.88;1778887;80;20215;-75
2021/03/26 02:56:18;;;;;;;;;;;;;;;-1.25;62.71;100432.48;1778781;80;22085;-75
2021/03/26 02:58:50;;;;;;;;;;;;;;;-1.24;62.73;100430.74;1779605;80;20357;-76
2021/03/26 03:01:44;;;;;;;;;;;;;;;-1.25;62.72;100433.78;1774543;80;20213;-76
2021/03/26 03:04:17;;;;;;;;;;;;;;;-1.24;62.78;100435.92;1738250;80;21151;-76
2021/03/26 03:06:48;;;;;;;;;;;;;;;-1.27;62.84;100431.66;1768748;80;20218;-76
2021/03/26 03:09:29;;;;;;;;;;;;;;;-1.31;62.96;100430.52;1757000;81;22097;-76
2021/03/26 03:12:06;;;;;;;;;;;;;;;-1.34;62.97;100431.47;1738391;81;20334;-77
2021/03/26 03:14:42;;;;;;;;;;;;;;;-1.35;62.93;100433.66;1727751;81;20231;-76
2021/03/26 03:17:23;;;;;;;;;;;;;;;-1.34;63.08;100432.76;1758530;81;20486;-76
2021/03/26 03:20:09;;;;;;;;;;;;;;;-1.35;63.04;100436.25;1758013;81;20240;-77
2021/03/26 03:22:46;;;;;;;;;;;;;;;-1.36;63.00;100444.88;1756226;80;21887;-76
2021/03/26 03:25:20;;;;;;;;;;;;;;;-1.39;63.15;100443.69;1758235;81;20209;-76
2021/03/26 03:27:51;;;;;;;;;;;;;;;-1.47;63.30;100450.37;1780837;80;20210;-77
2021/03/26 03:30:38;;;;;;;;;;;;;;;-1.51;63.32;100443.60;1760107;80;20853;-76
2021/03/26 03:33:12;;;;;;;;;;;;;;;-1.52;63.27;100445.80;1787695;80;20218;-76
2021/03/26 03:36:02;;;;;;;;;;;;;;;-1.50;63.32;100449.63;1773751;80;21985;-76
2021/03/26 03:38:57;;;;;;;;;;;;;;;-1.52;63.41;100443.20;1757828;81;21254;-76
2021/03/26 03:41:29;;;;;;;;;;;;;;;-1.59;63.53;100446.01;1758099;81;20209;-77
2021/03/26 03:44:16;;;;;;;;;;;;;;;-1.65;63.67;100447.47;1731653;81;20318;-77
2021/03/26 03:46:53;;;;;;;;;;;;;;;-1.68;63.79;100447.11;1760247;80;20212;-78
2021/03/26 03:49:38;;;;;;;;;;;;;;;-1.68;63.89;100452.29;1752142;80;21913;-78
2021/03/26 03:52:22;;;;;;;;;;;;;;;-1.66;63.92;100451.80;1758764;80;20359;-78
2021/03/26 03:55:11;;;;;;;;;;;;;;;-1.63;63.96;100450.44;1745139;82;20276;-77
2021/03/26 03:57:47;;;;;;;;;;;;;;;-1.60;63.84;100457.27;1735381;81;20686;-77
2021/03/26 04:00:22;;;;;;;;;;;;;;;-1.55;63.76;100449.75;1744929;81;20297;-77
2021/03/26 04:03:09;;;;;;;;;;;;;;;-1.52;63.75;100450.98;1740051;82;22143;-77
2021/03/26 04:05:40;;;;;;;;;;;;;;;-1.50;63.63;100451.77;1777008;80;21023;-76
2021/03/26 04:08:37;;;;;;;;;;;;;;;-1.46;63.59;100457.70;1752315;81;20218;-76
2021/03/26 04:11:28;;;;;;;;;;;;;;;-1.42;63.58;100455.89;1768902;79;20498;-75
2021/03/26 04:14:13;;;;;;;;;;;;;;;-1.39;63.36;100457.09;1743223;80;20220;-74
2021/03/26 04:16:43;;;;;;;;;;;;;;;-1.34;63.29;100459.12;1699331;83;21837;-74
2021/03/26 04:19:24;;;;;;;;;;;;;;;-1.28;63.02;100459.77;1774460;79;20443;-77
2021/03/26 04:22:02;;;;;;;;;;;;;;;-1.21;62.95;100461.29;1776553;80;20222;-76
2021/03/26 04:24:51;;;;;;;;;;;;;;;-1.17;62.66;100468.06;1777108;80;20485;-76
2021/03/26 04:27:30;;;;;;;;;;;;;;;-1.09;62.55;100469.59;1776778;79;20587;-77
2021/03/26 04:30:29;;;;;;;;;;;;;;;-1.03;62.32;100473.30;1747495;80;22062;-78
2021/03/26 04:32:59;;;;;;;;;;;;;;;-0.96;62.00;100474.37;1753975;79;20257;-77
2021/03/26 04:35:27;;;;;;;;;;;;;;;-0.88;61.97;100474.96;1776282;80;20513;-78
2021/03/26 04:38:09;;;;;;;;;;;;;;;-0.83;61.91;100476.12;1742146;80;20475;-75
2021/03/26 04:40:45;;;;;;;;;;;;;;;-0.79;61.64;100480.31;1777274;80;20227;-75
2021/03/26 04:43:30;;;;;;;;;;;;;;;-0.73;61.45;100486.61;1780146;80;22199;-76
2021/03/26 04:46:25;;;;;;;;;;;;;;;-0.67;61.33;100483.84;1778198;80;20380;-76
2021/03/26 04:48:59;;;;;;;;;;;;;;;-0.60;61.26;100487.91;1779297;79;20242;-77
2021/03/26 04:51:41;;;;;;;;;;;;;;;-0.54;61.03;100490.77;1733100;81;20659;-77
2021/03/26 04:54:29;;;;;;;;;;;;;;;-0.47;60.42;100490.14;1727729;82;20224;-76
2021/03/26 04:57:07;;;;;;;;;;;;;;;-0.36;60.37;100490.64;1742092;82;21088;-75
2021/03/26 04:59:39;;;;;;;;;;;;;;;-0.27;60.10;100495.98;1749964;82;20218;-75
2021/03/26 05:02:10;;;;;;;;;;;;;;;-0.21;59.34;100495.30;1748459;80;20400;-76
2021/03/26 05:04:39;;;;;;;;;;;;;;;-0.12;59.27;100489.81;1757008;80;20478;-75
2021/03/26 05:07:31;;;;;;;;;;;;;;;-0.04;59.09;100487.80;1757510;81;20232;-77
2021/03/26 05:10:03;;;;;;;;;;;;;;;0.04;59.05;100490.59;1771066;79;22971;-76
2021/03/26 05:12:48;;;;;;;;;;;;;;;0.10;58.79;100489.10;1777434;79;20393;-76
2021/03/26 05:15:29;;;;;;;;;;;;;;;0.17;58.71;100493.16;1764820;79;20222;-76
2021/03/26 05:18:04;;;;;;;;;;;;;;;0.25;58.14;100492.45;1779669;79;20553;-77
2021/03/26 05:20:37;;;;;;;;;;;;;;;0.34;57.91;100492.58;1788023;79;20411;-78
2021/03/26 05:23:29;;;;;;;;;;;;;;;0.43;57.70;100490.95;1753677;81;21814;-75
2021/03/26 05:25:59;;;;;;;;;;;;;;;0.52;57.43;100496.66;1728328;81;21133;-78
2021/03/26 05:28:41;;;;;;;;;;;;;;;0.63;57.24;100495.42;1756948;81;20213;-75
2021/03/26 05:31:17;;;;;;;;;;;;;;;0.72;57.07;100495.94;1753386;81;20314;-74
2021/03/26 05:33:46;;;;;;;;;;;;;;;0.82;56.77;100497.74;1756978;80;20212;-72
2021/03/26 05:36:34;;;;;;;;;;;;;;;0.91;56.28;100493.50;1763554;80;22854;-75
2021/03/26 05:39:21;;;;;;;;;;;;;;;1.02;56.09;100500.89;1768883;80;20760;-76
2021/03/26 05:42:32;;;;;;;;;;;;;;;1.14;55.56;100502.56;1775306;80;20212;-78
2021/03/26 05:45:11;;;;;;;;;;;;;;;1.27;54.86;100504.26;1748739;80;20440;-75
2021/03/26 05:48:05;;;;;;;;;;;;;;;1.37;55.15;100510.80;1781757;80;20714;-73
2021/03/26 05:50:49;;;;;;;;;;;;;;;1.46;54.63;100517.39;1776707;80;22939;-73
2021/03/26 05:53:35;;;;;;;;;;;;;;;1.54;54.48;100510.55;1758217;81;21250;-74
2021/03/26 05:56:39;;;;;;;;;;;;;;;1.63;54.19;100511.48;1780430;79;20252;-72
2021/03/26 05:59:18;;;;;;;;;;;;;;;1.71;54.04;100519.39;1744598;81;20463;-73
2021/03/26 06:02:04;;;;;;;;;;;;;;;1.81;53.88;100513.34;1742598;80;20136;-75
2021/03/26 06:05:12;;;;;;;;;;;;;;;1.92;53.46;100516.81;1686655;84;22374;-74
2021/03/26 06:08:27;;;;;;;;;;;;;;;2.09;52.96;100509.14;1840412;76;20291;-73
2021/03/26 06:11:09;;;;;;;;;;;;;;;2.17;52.66;100526.61;1790997;79;20219;-75
2021/03/26 06:14:25;;;;;;;;;;;;;;;2.30;52.08;100530.38;1796189;79;21882;-75
2021/03/26 06:17:23;;;;;;;;;;;;;;;2.42;51.44;100529.02;1797046;79;20643;-77
2021/03/26 06:20:26;;;;;;;;;;;;;;;2.53;51.03;100531.16;1766144;79;20220;-75
2021/03/26 06:23:39;;;;;;;;;;;;;;;2.59;50.86;100529.56;1812639;78;20231;-76
2021/03/26 06:26:24;;;;;;;;;;;;;;;2.66;50.37;100531.00;1813512;77;20232;-73
2021/03/26 06:29:03;;;;;;;;;;;;;;;2.74;50.14;100532.81;1786905;79;22003;-76
2021/03/26 06:31:54;;;;;;;;;;;;;;;2.79;50.14;100526.92;1789582;79;21376;-76
2021/03/26 06:34:50;;;;;;;;;;;;;;;2.86;50.26;100528.34;1784647;79;20215;-76
2021/03/26 06:37:56;;;;;;;;;;;;;;;3.00;50.38;100534.72;1793006;79;20316;-76
2021/03/26 06:41:01;;;;;;;;;;;;;;;3.08;50.05;100540.41;1817183;79;20216;-77
2021/03/26 06:44:05;;;;;;;;;;;;;;;3.15;49.96;100534.00;1818116;78;23430;-75
2021/03/26 06:46:38;;;;;;;;;;;;;;;3.24;49.95;100538.80;1779817;79;20485;-75
2021/03/26 06:49:28;;;;;;;;;;;;;;;3.37;50.02;100542.52;1761554;79;20220;-75
2021/03/26 06:52:09;;;;;;;;;;;;;;;3.47;49.86;100545.53;1783215;78;20745;-76
2021/03/26 06:55:07;;;;;;;;;;;;;;;3.56;49.07;100541.19;1765745;79;20284;-75
2021/03/26 06:57:55;;;;;;;;;;;;;;;3.64;49.29;100544.74;1751101;80;22815;-79
2021/03/26 07:00:36;;;;;;;;;;;;;;;3.78;48.95;100545.41;1790993;78;21284;-77
2021/03/26 07:03:36;;;;;;;;;;;;;;;3.90;48.45;100548.25;1880129;76;20245;-77
2021/03/26 07:06:38;;;;;;;;;;;;;;;3.90;48.12;100547.41;1846913;77;20210;-77
2021/03/26 07:09:12;;;;;;;;;;;;;;;3.95;48.56;100548.86;1847238;77;21894;-76
2021/03/26 07:11:52;;;;;;;;;;;;;;;4.07;48.09;100541.36;1849492;77;20383;-78
2021/03/26 07:14:43;;;;;;;;;;;;;;;4.18;47.60;100544.27;1851055;77;20214;-77
2021/03/26 07:17:35;;;;;;;;;;;;;;;4.30;47.34;100548.87;1847186;77;20293;-73
2021/03/26 07:20:27;;;;;;;;;;;;;;;4.41;47.25;100545.72;1804238;78;20266;-75
2021/03/26 07:23:05;;;;;;;;;;;;;;;4.54;47.58;100550.25;1799638;78;23022;-75
2021/03/26 07:26:01;;;;;;;;;;;;;;;4.67;47.39;100554.84;1808272;77;22552;-74
2021/03/26 07:28:36;;;;;;;;;;;;;;;4.77;47.50;100545.12;1810852;77;20252;-73
2021/03/26 07:31:30;;;;;;;;;;;;;;;4.89;46.80;100543.62;1852209;77;20246;-75
2021/03/26 07:34:08;;;;;;;;;;;;;;;4.97;46.78;100543.22;1821713;77;20209;-76
2021/03/26 07:37:10;;;;;;;;;;;;;;;5.05;46.68;100542.34;1843540;77;22030;-75
2021/03/26 07:39:58;;;;;;;;;;;;;;;5.14;46.54;100546.63;1809634;79;21207;-77
2021/03/26 07:42:38;;;;;;;;;;;;;;;5.21;46.61;100550.20;1836494;77;20257;-75
2021/03/26 07:45:09;;;;;;;;;;;;;;;5.27;46.05;100548.56;1847160;77;20228;-76
2021/03/26 07:47:50;;;;;;;;;;;;;;;5.37;45.81;100547.13;1808283;78;20434;-74
2021/03/26 07:50:37;;;;;;;;;;;;;;;5.48;45.22;100546.06;1809711;78;22474;-75
2021/03/26 07:53:11;;;;;;;;;;;;;;;5.59;45.20;100556.79;1807125;78;20464;-75
2021/03/26 07:55:56;;;;;;;;;;;;;;;5.74;44.94;100553.79;1798329;78;20208;-75
2021/03/26 07:58:40;;;;;;;;;;;;;;;5.83;44.86;100557.20;1810486;78;20739;-73
2021/03/26 08:01:23;;;;;;;;;;;;;;;5.98;43.94;100555.06;1812500;78;20482;-73
2021/03/26 08:03:57;;;;;;;;;;;;;;;6.09;43.67;100562.31;1822788;78;22123;-75
2021/03/26 08:06:49;;;;;;;;;;;;;;;6.22;43.24;100562.43;1807092;78;20474;-72
2021/03/26 08:09:37;;;;;;;;;;;;;;;6.29;42.04;100558.05;1808663;78;20482;-76
2021/03/26 08:12:18;;;;;;;;;;;;;;;6.36;41.67;100556.36;1803957;78;20998;-75
2021/03/26 08:14:51;;;;;;;;;;;;;;;6.43;42.16;100564.25;1730999;82;20270;-75
2021/03/26 08:17:39;;;;;;;;;;;;;;;6.55;41.72;100560.89;1745192;80;21896;-75
2021/03/26 08:20:15;;;;;;;;;;;;;;;6.61;41.90;100555.29;1746668;80;20264;-72
2021/03/26 08:22:52;;;;;;;;;;;;;;;6.68;40.89;100559.24;1750589;82;20486;-74
2021/03/26 08:25:55;;;;;;;;;;;;;;;6.71;41.08;100557.73;1777907;80;21491;-78
2021/03/26 08:28:26;;;;;;;;;;;;;;;6.83;42.09;100559.61;1740779;81;20233;-77
2021/03/26 08:31:14;;;;;;;;;;;;;;;7.05;41.12;100558.31;1753405;81;22082;-73
2021/03/26 08:33:58;;;;;;;;;;;;;;;7.13;41.20;100557.34;1767520;80;21879;-74
2021/03/26 08:36:55;;;;;;;;;;;;;;;7.24;41.82;100556.23;1761797;80;20217;-79
2021/03/26 08:39:38;;;;;;;;;;;;;;;7.39;40.93;100562.29;1742991;81;20492;-73
2021/03/26 08:42:26;;;;;;;;;;;;;;;7.45;40.35;100559.29;1776951;80;20250;-72
2021/03/26 08:44:56;;;;;;;;;;;;;;;7.49;41.14;100556.83;1764065;80;22101;-74
2021/03/26 08:47:36;;;;;;;;;;;;;;;7.64;41.50;100549.76;1750863;80;20834;-72
2021/03/26 08:50:11;;;;;;;;;;;;;;;7.82;40.56;100555.62;1764406;80;20220;-73
2021/03/26 08:53:12;;;;;;;;;;;;;;;7.90;40.72;100557.25;1769276;80;20216;-72
2021/03/26 08:55:58;;;;;;;;;;;;;;;8.01;40.44;100556.10;1751280;81;20246;-72
2021/03/26 08:58:41;;;;;;;;;;;;;;;8.04;41.08;100558.05;1759104;79;23121;-71
2021/03/26 09:01:21;;;;;;;;;;;;;;;8.22;40.80;100566.52;1753881;80;20543;-71
2021/03/26 09:04:05;;;;;;;;;;;;;;;8.31;39.48;100562.43;1726704;82;20223;-71
2021/03/26 09:06:56;;;;;;;;;;;;;;;8.24;40.02;100569.04;1717684;82;20219;-72
2021/03/26 09:09:40;;;;;;;;;;;;;;;8.24;40.10;100563.30;1749887;81;20243;-72
2021/03/26 09:12:27;;;;;;;;;;;;;;;8.26;40.07;100567.14;1761471;81;22633;-72
2021/03/26 09:15:34;;;;;;;;;;;;;;;8.32;40.66;100561.48;1762450;81;20523;-71
2021/03/26 09:18:22;;;;;;;;;;;;;;;8.47;40.64;100560.46;1762255;81;20212;-72
2021/03/26 09:21:10;;;;;;;;;;;;;;;8.59;40.24;100562.77;1753297;81;21055;-73
2021/03/26 09:23:48;;;;;;;;;;;;;;;8.69;40.39;100556.39;1762209;81;20523;-75
2021/03/26 09:26:36;;;;;;;;;;;;;;;8.79;40.04;100555.66;1762317;81;22134;-74
2021/03/26 09:29:10;;;;;;;;;;;;;;;8.94;41.61;100547.14;1756929;81;20383;-74
2021/03/26 09:31:47;;;;;;;;;;;;;;;9.24;40.89;100549.89;1750956;81;20224;-73
2021/03/26 09:34:27;;;;;;;;;;;;;;;9.41;40.04;100550.38;1755995;81;20649;-72
2021/03/26 09:37:11;;;;;;;;;;;;;;;9.49;39.69;100553.78;1740916;81;20231;-71
2021/03/26 09:39:40;;;;;;;;;;;;;;;9.46;39.82;100553.53;1754426;81;21803;-71
2021/03/26 09:42:28;;;;;;;;;;;;;;;9.48;40.32;100549.47;1762306;81;20372;-71
2021/03/26 09:45:11;;;;;;;;;;;;;;;9.60;40.27;100549.89;1758463;81;20216;-74
2021/03/26 09:47:45;;;;;;;;;;;;;;;9.76;40.99;100549.63;1731933;82;20235;-72
2021/03/26 09:50:26;;;;;;;;;;;;;;;10.02;41.04;100552.48;1755900;81;20267;-72
2021/03/26 09:52:53;;;;;;;;;;;;;;;10.26;40.28;100542.41;1754433;81;22356;-71
2021/03/26 09:55:30;;;;;;;;;;;;;;;10.51;40.15;100550.62;1733078;81;20219;-71
2021/03/26 09:58:05;;;;;;;;;;;;;;;10.73;39.49;100548.03;1762087;81;20212;-73
2021/03/26 10:01:07;;;;;;;;;;;;;;;10.91;38.91;100548.41;1761556;81;20683;-72
2021/03/26 10:04:03;;;;;;;;;;;;;;;10.97;38.23;100545.27;1746480;81;20236;-70
2021/03/26 10:06:53;;;;;;;;;;;;;;;10.96;38.31;100548.04;1757652;81;22142;-70
2021/03/26 10:12:20;;;;;;;;;;;;;;;11.19;38.83;100549.70;1763467;81;20232;-69
2021/03/26 10:14:59;;;;;;;;;;;;;;;11.47;39.02;100550.51;1763418;81;20266;-69
2021/03/26 10:17:54;;;;;;;;;;;;;;;11.74;37.82;100552.73;1763404;81;20233;-70
2021/03/26 10:20:26;;;;;;;;;;;;;;;11.77;37.18;100551.64;1737890;81;22083;-70
2021/03/26 10:23:13;;;;;;;;;;;;;;;11.67;37.35;100552.86;1759391;80;21394;-71
2021/03/26 10:25:49;;;;;;;;;;;;;;;11.66;37.59;100544.58;1758387;81;20260;-69
2021/03/26 10:28:33;;;;;;;;;;;;;;;11.77;37.27;100546.34;1763756;80;20230;-70
2021/03/26 10:31:12;;;;;;;;;;;;;;;11.94;37.82;100544.52;1739300;80;20247;-70
2021/03/26 10:33:48;;;;;;;;;;;;;;;12.33;38.30;100539.52;1768004;80;21900;-71
2021/03/26 10:36:36;;;;;;;;;;;;;;;12.74;37.10;100528.53;1724520;83;20229;-71
2021/03/26 10:39:19;;;;;;;;;;;;;;;12.97;36.06;100526.08;1735983;81;20276;-70
2021/03/26 10:41:54;;;;;;;;;;;;;;;13.03;34.60;100528.20;1737138;81;21128;-70
2021/03/26 10:44:37;;;;;;;;;;;;;;;12.89;34.85;100532.52;1745634;81;20206;-71
2021/03/26 10:47:27;;;;;;;;;;;;;;;12.86;35.47;100527.02;1750805;80;22077;-71
2021/03/26 10:49:58;;;;;;;;;;;;;;;12.98;35.36;100528.23;1752498;81;20513;-72
2021/03/26 10:52:39;;;;;;;;;;;;;;;13.15;35.83;100532.92;1748597;81;20207;-74
2021/03/26 10:55:24;;;;;;;;;;;;;;;13.37;35.20;100534.55;1738938;81;20670;-71
2021/03/26 10:58:21;;;;;;;;;;;;;;;13.55;34.15;100534.23;1745133;80;20231;-71
2021/03/26 11:01:08;;;;;;;;;;;;;;;13.50;33.84;100524.50;1735316;81;22349;-74
2021/03/26 11:03:50;;;;;;;;;;;;;;;13.54;33.88;100528.58;1757550;81;21041;-75
2021/03/26 11:06:24;;;;;;;;;;;;;;;13.54;33.24;100530.40;1757746;81;20224;-73
2021/03/26 11:08:56;;;;;;;;;;;;;;;13.66;34.31;100531.95;1757678;81;20354;-74
2021/03/26 11:11:36;;;;;;;;;;;;;;;13.90;33.95;100535.05;1758089;81;20497;-74
2021/03/26 11:14:10;;;;;;;;;;;;;;;14.01;33.24;100536.23;1757488;80;22071;-77
2021/03/26 11:16:40;;;;;;;;;;;;;;;14.03;33.25;100528.97;1755899;80;20437;-73
2021/03/26 11:19:13;;;;;;;;;;;;;;;14.09;32.81;100533.34;1747840;80;20230;-74
2021/03/26 11:21:44;;;;;;;;;;;;;;;14.03;33.66;100525.47;1729572;81;21327;-73
2021/03/26 11:24:11;;;;;;;;;;;;;;;14.24;33.13;100521.33;1756835;81;20236;-74
2021/03/26 11:27:01;;;;;;;;;;;;;;;14.47;33.41;100520.05;1759703;80;23152;-74
2021/03/26 11:29:32;;;;;;;;;;;;;;;14.70;33.24;100523.23;1737766;81;20391;-74
2021/03/26 11:32:08;;;;;;;;;;;;;;;15.03;32.29;100517.84;1767896;79;20215;-74
2021/03/26 11:34:49;;;;;;;;;;;;;;;15.10;31.56;100524.26;1761933;80;20460;-73
2021/03/26 11:37:29;;;;;;;;;;;;;;;15.03;31.82;100519.17;1756946;81;20231;-80
2021/03/26 11:40:16;;;;;;;;;;;;;;;15.04;31.93;100526.66;1744741;81;23141;-73
2021/03/26 11:43:13;;;;;;;;;;;;;;;15.00;32.02;100518.64;1730861;81;20649;-72
2021/03/26 11:46:01;;;;;;;;;;;;;;;14.98;32.19;100521.94;1748260;81;20406;-74
2021/03/26 11:48:59;;;;;;;;;;;;;;;14.95;31.64;100513.73;1755583;81;20864;-83
2021/03/26 11:51:48;;;;;;;;;;;;;;;14.87;31.98;100515.83;1753687;81;20220;-75
2021/03/26 11:54:36;;;;;;;;;;;;;;;14.92;31.93;100517.20;1746535;81;22065;-74
2021/03/26 11:57:13;;;;;;;;;;;;;;;14.99;32.68;100520.46;1756782;81;20364;-74
2021/03/26 12:00:02;;;;;;;;;;;;;;;15.11;31.11;100513.95;1756235;81;20297;-72
2021/03/26 12:02:56;;;;;;;;;;;;;;;15.14;31.17;100515.48;1744463;81;21904;-73
2021/03/26 12:05:39;;;;;;;;;;;;;;;15.08;31.15;100510.27;1756987;81;20283;-73
2021/03/26 12:08:32;;;;;;;;;;;;;;;15.07;31.46;100513.08;1752912;81;22072;-74
2021/03/26 12:11:16;;;;;;;;;;;;;;;15.14;31.72;100514.98;1756782;81;20286;-76
2021/03/26 12:14:08;;;;;;;;;;;;;;;15.30;32.91;100506.36;1747016;81;20504;-75
2021/03/26 12:16:39;;;;;;;;;;;;;;;15.43;31.03;100509.98;1754990;81;20298;-76
2021/03/26 12:19:13;;;;;;;;;;;;;;;15.29;31.21;100508.69;1739902;81;20223;-75
2021/03/26 12:22:01;;;;;;;;;;;;;;;15.33;31.79;100511.87;1715219;81;22816;-75
2021/03/26 12:24:39;;;;;;;;;;;;;;;15.42;31.32;100510.48;1739284;81;21905;-76
2021/03/26 12:27:21;;;;;;;;;;;;;;;15.53;31.47;100505.44;1726813;81;20661;-76
2021/03/26 12:29:55;;;;;;;;;;;;;;;15.49;30.98;100508.56;1720816;83;20914;-75
2021/03/26 12:32:43;;;;;;;;;;;;;;;15.54;31.69;100507.14;1725760;81;20265;-75
2021/03/26 12:35:23;;;;;;;;;;;;;;;15.82;32.04;100501.77;1756927;81;22053;-76
2021/03/26 12:38:26;;;;;;;;;;;;;;;16.11;31.98;100506.84;1756136;81;21509;-76
2021/03/26 12:40:58;;;;;;;;;;;;;;;16.38;30.48;100494.72;1756851;81;20270;-75
2021/03/26 12:43:50;;;;;;;;;;;;;;;16.53;31.17;100491.84;1739209;81;20378;-77
2021/03/26 12:46:24;;;;;;;;;;;;;;;16.79;30.80;100492.33;1747092;82;20229;-75
2021/03/26 12:49:05;;;;;;;;;;;;;;;17.10;30.13;100495.33;1745524;82;20437;-75
2021/03/26 12:51:38;;;;;;;;;;;;;;;17.26;29.36;100494.03;1757948;81;20631;-76
2021/03/26 12:54:27;;;;;;;;;;;;;;;17.23;30.05;100493.02;1747742;81;20218;-77
2021/03/26 12:57:00;;;;;;;;;;;;;;;17.37;29.67;100491.08;1782080;80;20476;-76
2021/03/26 12:59:50;;;;;;;;;;;;;;;17.37;29.28;100485.74;1762455;80;20280;-78
2021/03/26 13:02:33;;;;;;;;;;;;;;;17.24;29.03;100488.52;1762553;81;20272;-77
2021/03/26 13:05:28;;;;;;;;;;;;;;;17.02;29.89;100483.28;1758013;80;20369;-78
2021/03/26 13:08:01;;;;;;;;;;;;;;;16.77;29.49;100483.66;1762505;81;20256;-76
2021/03/26 13:11:07;;;;;;;;;;;;;;;17.01;30.79;100485.61;1762005;81;20608;-77
2021/03/26 13:13:41;;;;;;;;;;;;;;;17.42;28.49;100482.57;1732314;83;20281;-75
2021/03/26 13:16:17;;;;;;;;;;;;;;;17.33;29.28;100485.72;1747741;81;22071;-75
2021/03/26 13:18:54;;;;;;;;;;;;;;;17.51;28.51;100482.92;1762504;81;20263;-75
2021/03/26 13:21:48;;;;;;;;;;;;;;;17.50;28.25;100477.25;1762628;81;20280;-75
2021/03/26 13:24:40;;;;;;;;;;;;;;;17.63;28.82;100482.94;1762517;81;20308;-74
2021/03/26 13:27:23;;;;;;;;;;;;;;;17.89;29.31;100480.16;1762783;81;20482;-75
2021/03/26 13:30:00;;;;;;;;;;;;;;;17.93;28.19;100486.00;1756049;81;22084;-74
2021/03/26 13:32:43;;;;;;;;;;;;;;;17.98;27.66;100476.50;1760875;81;20434;-75
2021/03/26 13:35:23;;;;;;;;;;;;;;;18.21;29.12;100483.83;1715698;83;20277;-74
2021/03/26 13:37:53;;;;;;;;;;;;;;;18.38;27.26;100479.30;1712692;83;20908;-74
2021/03/26 13:40:21;;;;;;;;;;;;;;;18.40;26.92;100470.59;1710560;84;20275;-76
2021/03/26 13:42:51;;;;;;;;;;;;;;;18.44;27.25;100472.78;1686613;83;22778;-75
2021/03/26 13:45:24;;;;;;;;;;;;;;;18.57;27.18;100477.09;1710462;84;20472;-74
2021/03/26 13:48:01;;;;;;;;;;;;;;;18.72;26.95;100483.95;1687019;83;20301;-73
2021/03/26 13:50:59;;;;;;;;;;;;;;;18.72;26.45;100477.26;1729032;82;21808;-73
2021/03/26 13:53:51;;;;;;;;;;;;;;;18.46;25.50;100474.77;1743630;82;20263;-72